Time;durP1;ratioP1;P1;durP2;ratioP2;P2;SDS_P1;SDS_P2;PMS_P1;PMS_P2;Temp;Humidity;BMP_temperature;BMP_pressure;BME280_temperature;BME280_humidity;BME280_pressure;Samples;Min_cycle;Max_cycle;Signal;HPM_P1;HPM_P2
2023/05/26 00:00:59;;;;;;;12.00;10.10;;;;;;;16.37;76.79;101027.14;104149;275;38477;-74
2023/05/26 00:03:35;;;;;;;11.90;10.70;;;;;;;16.32;77.07;101025.45;104129;275;39111;-74
2023/05/26 00:06:10;;;;;;;10.50;9.60;;;;;;;16.32;77.32;101026.04;104118;275;38608;-73
2023/05/26 00:08:45;;;;;;;10.90;9.90;;;;;;;16.29;77.39;101027.21;104014;276;38970;-73
2023/05/26 00:11:24;;;;;;;12.70;9.20;;;;;;;16.23;77.33;101030.13;104149;275;38266;-72
2023/05/26 00:14:02;;;;;;;10.00;9.20;;;;;;;16.18;77.31;101032.54;104136;275;39392;-70
2023/05/26 00:16:38;;;;;;;11.10;10.00;;;;;;;16.13;77.26;101034.88;104177;275;38441;-74
2023/05/26 00:19:17;;;;;;;10.50;9.20;;;;;;;16.06;77.60;101037.02;104162;275;38249;-74
2023/05/26 00:21:56;;;;;;;10.00;9.10;;;;;;;15.98;77.86;101035.45;104239;275;38335;-73
2023/05/26 00:24:30;;;;;;;10.50;8.80;;;;;;;15.95;77.94;101038.97;104177;275;39441;-74
2023/05/26 00:27:07;;;;;;;10.10;9.10;;;;;;;15.90;78.26;101034.46;104211;275;38264;-74
2023/05/26 00:29:42;;;;;;;10.00;9.00;;;;;;;15.88;78.49;101035.63;104169;275;38379;-75
2023/05/26 00:32:20;;;;;;;10.80;8.90;;;;;;;15.88;78.60;101036.83;104145;276;38532;-74
2023/05/26 00:34:54;;;;;;;9.90;9.00;;;;;;;15.86;78.48;101035.38;104169;275;39389;-71
2023/05/26 00:37:30;;;;;;;9.40;8.60;;;;;;;15.84;78.57;101036.88;104156;275;38294;-75
2023/05/26 00:40:05;;;;;;;9.00;8.10;;;;;;;15.81;78.44;101037.76;104129;275;38302;-74
2023/05/26 00:42:39;;;;;;;10.00;8.80;;;;;;;15.77;78.49;101034.60;104127;276;39045;-72
2023/05/26 00:45:15;;;;;;;10.10;9.20;;;;;;;15.77;78.75;101031.27;104135;275;39400;-74
2023/05/26 00:47:49;;;;;;;11.60;9.10;;;;;;;15.79;78.97;101028.88;104150;275;38435;-74
2023/05/26 00:50:24;;;;;;;11.10;10.00;;;;;;;15.81;79.06;101030.34;104082;275;38564;-74
2023/05/26 00:53:00;;;;;;;11.20;10.20;;;;;;;15.81;79.01;101033.50;103956;275;174876;-74
2023/05/26 00:55:34;;;;;;;14.30;10.80;;;;;;;15.80;78.87;101033.73;104152;276;39440;-73
2023/05/26 00:58:10;;;;;;;10.10;9.10;;;;;;;15.79;79.04;101033.44;104016;277;38379;-73
2023/05/26 01:00:52;;;;;;;10.70;9.60;;;;;;;15.77;78.95;101034.58;103361;277;902759;-73
2023/05/26 01:03:27;;;;;;;10.30;9.40;;;;;;;15.74;78.86;101036.30;104165;275;38391;-73
2023/05/26 01:06:01;;;;;;;10.60;9.50;;;;;;;15.70;78.87;101039.66;104223;275;38416;-74
2023/05/26 01:08:41;;;;;;;10.10;9.30;;;;;;;15.69;79.14;101038.14;104193;275;39467;-74
2023/05/26 01:11:21;;;;;;;10.80;9.80;;;;;;;15.65;78.81;101038.86;104192;275;39975;-74
2023/05/26 01:14:05;;;;;;;9.50;8.60;;;;;;;15.58;78.67;101041.98;104221;276;38395;-74
2023/05/26 01:16:56;;;;;;;9.60;8.50;;;;;;;15.56;78.64;101037.02;104219;275;39642;-74
2023/05/26 01:20:12;;;;;;;8.60;7.80;;;;;;;15.51;78.60;101038.44;104159;275;39193;-73
2023/05/26 01:23:23;;;;;;;9.00;7.90;;;;;;;15.44;78.29;101039.98;104149;275;38355;-74
2023/05/26 01:26:22;;;;;;;10.50;7.80;;;;;;;15.38;77.92;101046.11;104183;275;38259;-73
2023/05/26 01:29:01;;;;;;;9.70;8.20;;;;;;;15.32;77.75;101046.56;104114;275;38407;-73
2023/05/26 01:31:39;;;;;;;9.80;8.50;;;;;;;15.28;78.07;101045.54;104135;275;38237;-72
2023/05/26 01:34:17;;;;;;;8.80;8.00;;;;;;;15.24;77.98;101045.36;104150;275;38798;-74
2023/05/26 01:36:51;;;;;;;10.30;9.30;;;;;;;15.19;78.14;101046.77;104204;275;38218;-74
2023/05/26 01:39:25;;;;;;;10.30;9.10;;;;;;;15.17;78.14;101046.17;103970;276;38679;-74
2023/05/26 01:42:06;;;;;;;9.80;8.90;;;;;;;15.12;78.41;101044.51;104162;276;38452;-74
2023/05/26 01:44:47;;;;;;;9.80;8.80;;;;;;;15.08;78.53;101041.69;104144;276;38221;-75
2023/05/26 01:47:21;;;;;;;9.60;8.60;;;;;;;15.05;78.62;101041.34;104207;275;38717;-73
2023/05/26 01:49:58;;;;;;;9.80;8.40;;;;;;;15.04;78.77;101040.67;104173;275;39458;-73
2023/05/26 01:52:36;;;;;;;10.00;8.80;;;;;;;15.04;78.86;101044.91;104193;275;38697;-74
2023/05/26 01:55:12;;;;;;;;;;;;;;;15.03;79.03;101041.77;104068;277;38253;-73
2023/05/26 01:57:49;;;;;;;10.80;9.70;;;;;;;14.93;79.49;101044.82;104235;275;38304;-75
2023/05/26 02:00:37;;;;;;;12.00;10.80;;;;;;;14.86;79.76;101042.86;104241;275;39738;-73
2023/05/26 02:03:12;;;;;;;13.00;11.90;;;;;;;14.83;80.22;101044.44;104191;275;38878;-74
2023/05/26 02:05:48;;;;;;;11.40;10.40;;;;;;;14.85;80.33;101044.66;104176;276;39386;-73
2023/05/26 02:08:24;;;;;;;11.30;10.00;;;;;;;14.87;80.47;101043.70;104154;275;38879;-74
2023/05/26 02:10:58;;;;;;;22.10;11.60;;;;;;;14.92;80.58;101054.38;104205;275;39637;-73
2023/05/26 02:13:34;;;;;;;39.30;14.30;;;;;;;14.93;80.64;101052.23;104147;275;38374;-73
2023/05/26 02:16:16;;;;;;;25.30;11.60;;;;;;;14.92;80.50;101049.45;104102;275;38637;-74
2023/05/26 02:18:50;;;;;;;22.80;11.30;;;;;;;14.95;80.80;101055.30;104082;276;38732;-73
2023/05/26 02:21:24;;;;;;;9.50;8.50;;;;;;;15.00;80.65;101052.08;104079;276;38868;-73
2023/05/26 02:23:58;;;;;;;11.00;8.10;;;;;;;15.00;80.57;101055.92;104040;276;38597;-73
2023/05/26 02:26:34;;;;;;;10.30;8.40;;;;;;;15.02;80.25;101055.36;103979;276;38726;-74
2023/05/26 02:29:08;;;;;;;8.40;7.50;;;;;;;15.00;80.19;101057.02;104058;276;39416;-73
2023/05/26 02:31:42;;;;;;;8.60;7.70;;;;;;;15.00;80.09;101057.02;104035;276;38434;-73
2023/05/26 02:34:20;;;;;;;9.70;8.60;;;;;;;14.98;80.01;101056.56;104038;276;38219;-74
2023/05/26 02:36:55;;;;;;;8.80;7.80;;;;;;;14.87;79.82;101054.77;104100;276;39627;-73
2023/05/26 02:39:31;;;;;;;9.10;7.70;;;;;;;14.80;80.04;101052.47;104015;276;38527;-73
2023/05/26 02:42:07;;;;;;;8.60;7.80;;;;;;;14.74;80.03;101055.55;104080;276;38496;-73
2023/05/26 02:44:48;;;;;;;7.80;7.10;;;;;;;14.68;80.10;101052.83;104083;276;38524;-73
2023/05/26 02:47:27;;;;;;;8.80;8.00;;;;;;;14.67;80.53;101048.99;104083;276;39438;-74
2023/05/26 02:50:05;;;;;;;8.80;8.00;;;;;;;14.68;80.84;101048.23;104093;276;39979;-75
2023/05/26 02:52:39;;;;;;;10.30;8.40;;;;;;;14.69;80.74;101046.09;104053;276;38237;-74
2023/05/26 02:55:14;;;;;;;9.90;7.50;;;;;;;14.71;80.89;101046.52;104081;276;39535;-73
2023/05/26 02:57:52;;;;;;;9.10;8.10;;;;;;;14.74;80.78;101046.95;104014;276;38334;-74
2023/05/26 03:00:28;;;;;;;8.30;7.50;;;;;;;14.69;80.46;101054.16;104028;276;38514;-72
2023/05/26 03:03:02;;;;;;;8.90;8.00;;;;;;;14.68;80.69;101062.81;104017;265;39668;-71
2023/05/26 03:05:36;;;;;;;11.10;8.80;;;;;;;14.69;80.83;101068.39;103979;276;39636;-73
2023/05/26 03:08:11;;;;;;;10.00;9.00;;;;;;;14.67;80.92;101065.66;104021;276;38240;-74
2023/05/26 03:10:45;;;;;;;10.10;8.40;;;;;;;14.65;81.04;101062.77;104061;276;39396;-73
2023/05/26 03:13:22;;;;;;;9.80;8.80;;;;;;;14.66;81.15;101066.95;104041;276;38920;-74
2023/05/26 03:15:56;;;;;;;9.20;8.20;;;;;;;14.70;81.13;101067.99;104087;276;39363;-74
2023/05/26 03:18:30;;;;;;;8.80;7.90;;;;;;;14.69;81.27;101068.73;104040;276;39425;-74
2023/05/26 03:21:09;;;;;;;10.20;9.10;;;;;;;14.71;81.21;101064.80;104095;276;38448;-75
2023/05/26 03:23:44;;;;;;;11.40;8.60;;;;;;;14.74;81.41;101062.23;103951;276;39352;-74
2023/05/26 03:26:20;;;;;;;9.70;8.10;;;;;;;14.78;81.50;101065.73;104104;276;38361;-74
2023/05/26 03:28:59;;;;;;;10.20;9.00;;;;;;;14.80;81.75;101062.84;104070;276;38482;-74
2023/05/26 03:31:34;;;;;;;9.70;8.00;;;;;;;14.83;81.66;101064.96;104050;276;38265;-73
2023/05/26 03:34:09;;;;;;;10.20;9.10;;;;;;;14.90;82.02;101069.74;104036;277;38234;-74
2023/05/26 03:36:46;;;;;;;10.30;9.30;;;;;;;15.00;82.32;101064.54;103907;277;38502;-74
2023/05/26 03:39:23;;;;;;;10.90;9.20;;;;;;;15.13;82.32;101069.58;104082;276;39658;-74
2023/05/26 03:41:59;;;;;;;9.10;7.90;;;;;;;15.50;82.99;101070.85;104051;276;38575;-74
2023/05/26 03:44:34;;;;;;;9.70;8.00;;;;;;;16.04;83.57;101068.08;104015;276;38992;-74
2023/05/26 03:47:09;;;;;;;8.90;8.10;;;;;;;16.64;83.24;101067.15;104041;276;38691;-73
2023/05/26 03:49:45;;;;;;;8.50;7.70;;;;;;;17.20;81.05;101060.85;104010;276;38233;-73
2023/05/26 03:52:20;;;;;;;9.50;8.50;;;;;;;17.61;79.02;101060.12;103665;276;482366;-74
2023/05/26 03:54:57;;;;;;;8.80;8.00;;;;;;;18.04;77.89;101062.13;103868;276;189690;-73
2023/05/26 03:57:35;;;;;;;8.00;7.20;;;;;;;18.50;76.41;101059.92;103823;277;38827;-73
2023/05/26 04:00:17;;;;;;;8.10;7.30;;;;;;;18.90;74.13;101062.32;104024;276;39769;-73
2023/05/26 04:02:53;;;;;;;8.00;7.20;;;;;;;19.31;72.03;101062.41;104034;276;38485;-73
2023/05/26 04:05:30;;;;;;;7.80;7.10;;;;;;;19.70;70.65;101061.67;103931;277;39686;-74
2023/05/26 04:08:08;;;;;;;8.30;7.20;;;;;;;20.01;68.89;101059.23;103945;277;38531;-74
2023/05/26 04:10:45;;;;;;;7.40;6.80;;;;;;;20.13;67.11;101064.30;103976;277;38291;-74
2023/05/26 04:13:19;;;;;;;7.20;6.40;;;;;;;20.12;65.73;101068.61;103791;279;39317;-73
2023/05/26 04:15:59;;;;;;;8.50;6.70;;;;;;;20.14;65.24;101069.91;103786;278;39949;-76
2023/05/26 04:18:36;;;;;;;9.50;7.00;;;;;;;19.98;64.16;101073.42;103836;278;38486;-74
2023/05/26 04:21:11;;;;;;;7.30;6.60;;;;;;;19.75;64.11;101075.52;103930;277;38754;-71
2023/05/26 04:23:52;;;;;;;8.30;6.80;;;;;;;19.45;63.76;101078.65;103957;277;39493;-73
2023/05/26 04:26:32;;;;;;;8.40;6.40;;;;;;;19.20;64.38;101081.84;103951;277;39588;-73
2023/05/26 04:29:07;;;;;;;7.80;7.00;;;;;;;19.00;65.30;101082.00;103933;277;38248;-73
2023/05/26 04:31:42;;;;;;;7.40;6.60;;;;;;;18.89;65.81;101081.11;103917;277;38453;-73
2023/05/26 04:34:21;;;;;;;7.60;5.60;;;;;;;18.83;66.01;101081.61;103916;277;38352;-75
2023/05/26 04:37:03;;;;;;;7.40;6.20;;;;;;;18.74;64.92;101081.50;103895;277;38485;-76
2023/05/26 04:39:37;;;;;;;7.10;5.70;;;;;;;18.61;64.67;101074.10;103764;277;174850;-73
2023/05/26 04:42:12;;;;;;;6.50;5.80;;;;;;;18.52;64.40;101071.27;103803;279;40352;-72
2023/05/26 04:44:54;;;;;;;6.60;6.00;;;;;;;18.46;64.57;101067.05;103909;277;38679;-72
2023/05/26 04:47:32;;;;;;;7.10;5.60;;;;;;;18.43;64.36;101067.98;103920;277;39538;-73
2023/05/26 04:50:16;;;;;;;7.70;6.20;;;;;;;18.41;64.52;101071.95;103881;277;38916;-74
2023/05/26 04:52:59;;;;;;;7.50;5.80;;;;;;;18.52;64.31;101074.81;103871;277;38898;-72
2023/05/26 04:55:36;;;;;;;7.70;5.70;;;;;;;18.88;65.05;101072.70;103946;277;39465;-74
2023/05/26 04:58:11;;;;;;;6.50;5.20;;;;;;;19.45;64.79;101074.77;103914;277;38438;-74
2023/05/26 05:00:48;;;;;;;5.80;5.00;;;;;;;20.15;64.26;101069.64;103839;277;38220;-73
2023/05/26 05:03:26;;;;;;;5.70;5.10;;;;;;;20.97;62.70;101068.70;103980;277;38801;-74
2023/05/26 05:06:00;;;;;;;5.40;4.80;;;;;;;21.74;59.77;101065.08;104155;276;38391;-73
2023/05/26 05:08:36;;;;;;;7.70;5.20;;;;;;;22.32;57.33;101066.67;104160;276;38267;-73
2023/05/26 05:11:13;;;;;;;6.30;5.20;;;;;;;22.87;56.00;101065.40;104094;276;38319;-71
2023/05/26 05:13:48;;;;;;;7.70;4.70;;;;;;;23.34;54.06;101065.23;104065;276;38641;-74
2023/05/26 05:16:26;;;;;;;6.70;4.80;;;;;;;23.67;52.60;101066.30;104064;276;39673;-74
2023/05/26 05:19:00;;;;;;;4.90;4.30;;;;;;;23.96;51.79;101063.75;104034;276;38240;-74
2023/05/26 05:21:37;;;;;;;4.90;4.00;;;;;;;24.32;50.96;101058.95;103848;277;38333;-74
2023/05/26 05:24:11;;;;;;;6.40;4.40;;;;;;;24.74;49.26;101060.48;103810;276;38766;-73
2023/05/26 05:26:46;;;;;;;6.00;4.50;;;;;;;25.22;48.14;101063.09;104030;276;38277;-74
2023/05/26 05:29:21;;;;;;;7.80;4.00;;;;;;;25.53;45.81;101064.08;103983;276;39384;-74
2023/05/26 05:31:55;;;;;;;5.70;4.50;;;;;;;25.52;44.26;101066.89;104027;276;39437;-74
2023/05/26 05:34:31;;;;;;;6.80;4.50;;;;;;;25.08;43.80;101071.28;104040;276;39406;-74
2023/05/26 05:37:06;;;;;;;6.60;4.50;;;;;;;24.55;44.86;101072.30;104017;276;38956;-75
2023/05/26 05:39:41;;;;;;;6.80;4.30;;;;;;;24.10;45.98;101076.23;103997;276;39289;-75
2023/05/26 05:42:17;;;;;;;5.90;4.20;;;;;;;23.75;47.30;101080.83;104051;276;38438;-73
2023/05/26 05:44:54;;;;;;;7.60;4.70;;;;;;;23.48;48.22;101082.23;103801;276;39151;-74
2023/05/26 05:47:29;;;;;;;5.40;3.80;;;;;;;23.19;48.14;101083.14;104066;276;38273;-73
2023/05/26 05:50:07;;;;;;;6.80;3.90;;;;;;;22.94;47.85;101087.83;104025;276;39404;-72
2023/05/26 05:52:43;;;;;;;6.80;3.90;;;;;;;22.80;47.21;101087.98;104115;276;39384;-72
2023/05/26 05:55:19;;;;;;;5.40;3.50;;;;;;;22.77;46.57;101086.98;104075;276;38763;-73
2023/05/26 05:57:54;;;;;;;8.50;3.90;;;;;;;22.99;46.75;101086.38;104113;276;38253;-74
2023/05/26 06:00:28;;;;;;;6.80;3.60;;;;;;;23.54;45.93;101085.73;104030;276;38348;-73
2023/05/26 06:03:05;;;;;;;5.90;3.60;;;;;;;24.12;44.85;101079.33;104042;276;38282;-73
2023/05/26 06:05:41;;;;;;;5.90;3.10;;;;;;;24.87;44.89;101081.00;104016;276;39051;-72
2023/05/26 06:08:20;;;;;;;8.00;3.60;;;;;;;25.66;43.68;101078.30;104085;276;39217;-74
2023/05/26 06:10:56;;;;;;;6.40;3.40;;;;;;;26.33;42.35;101079.63;104122;276;39424;-71
2023/05/26 06:13:30;;;;;;;5.30;3.50;;;;;;;26.96;41.37;101079.63;104073;274;38437;-71
2023/05/26 06:16:04;;;;;;;5.60;3.30;;;;;;;27.58;40.12;101078.42;104081;276;39391;-73
2023/05/26 06:18:39;;;;;;;5.40;3.20;;;;;;;27.97;38.53;101069.73;103998;276;38517;-74
2023/05/26 06:21:14;;;;;;;9.20;3.50;;;;;;;28.39;38.22;101070.31;104034;276;38298;-72
2023/05/26 06:23:48;;;;;;;4.10;3.10;;;;;;;28.73;37.17;101066.84;104047;276;38675;-72
2023/05/26 06:26:26;;;;;;;6.60;3.30;;;;;;;29.09;36.67;101071.85;104083;276;38271;-74
2023/05/26 06:29:04;;;;;;;4.80;3.40;;;;;;;29.69;35.52;101072.96;104023;276;39059;-74
2023/05/26 06:31:41;;;;;;;6.00;3.10;;;;;;;29.91;34.69;101072.33;104051;276;38704;-75
2023/05/26 06:34:17;;;;;;;4.20;2.80;;;;;;;30.21;34.33;101068.83;104049;276;39962;-74
2023/05/26 06:36:54;;;;;;;4.80;2.80;;;;;;;30.47;33.53;101072.28;104084;276;38475;-75
2023/05/26 06:39:29;;;;;;;5.00;3.10;;;;;;;30.61;33.92;101071.02;104114;276;39460;-75
2023/05/26 06:42:11;;;;;;;6.50;3.20;;;;;;;30.66;32.62;101075.33;104059;276;38834;-74
2023/05/26 06:44:48;;;;;;;5.30;2.90;;;;;;;30.77;31.32;101072.16;104133;276;39459;-74
2023/05/26 06:47:23;;;;;;;4.90;3.00;;;;;;;30.74;32.05;101076.38;103932;276;38229;-73
2023/05/26 06:50:02;;;;;;;4.60;3.10;;;;;;;30.86;31.09;101079.67;104070;276;38252;-73
2023/05/26 06:52:37;;;;;;;4.50;3.10;;;;;;;30.92;30.86;101078.20;104072;276;38301;-74
2023/05/26 06:55:14;;;;;;;6.50;3.50;;;;;;;31.16;30.66;101082.46;103888;276;39684;-74
2023/05/26 06:57:50;;;;;;;4.40;3.20;;;;;;;31.47;31.22;101083.13;104094;276;38267;-73
2023/05/26 07:00:25;;;;;;;8.00;3.70;;;;;;;31.75;31.23;101083.20;104013;277;39785;-73
2023/05/26 07:03:00;;;;;;;4.90;3.50;;;;;;;31.86;30.37;101083.27;104059;264;38409;-74
2023/05/26 07:05:36;;;;;;;6.40;3.50;;;;;;;32.06;30.40;101080.73;103959;277;38246;-74
2023/05/26 07:08:10;;;;;;;4.80;3.00;;;;;;;32.26;29.53;101076.58;103923;277;39424;-73
2023/05/26 07:10:44;;;;;;;4.30;3.50;;;;;;;32.51;29.10;101081.69;103965;277;39404;-75
2023/05/26 07:13:25;;;;;;;5.30;3.60;;;;;;;32.63;29.06;101080.45;103964;277;38286;-73
2023/05/26 07:15:59;;;;;;;6.60;3.80;;;;;;;32.55;28.47;101082.59;103984;277;39515;-75
2023/05/26 07:18:33;;;;;;;6.10;3.40;;;;;;;32.40;29.40;101081.73;103976;277;38225;-75
2023/05/26 07:21:08;;;;;;;5.90;3.30;;;;;;;32.55;29.58;101077.98;103832;279;38415;-74
2023/05/26 07:23:42;;;;;;;6.50;3.00;;;;;;;32.60;28.97;101072.95;103971;277;38304;-73
2023/05/26 07:26:18;;;;;;;6.10;3.30;;;;;;;32.87;29.27;101075.48;103964;277;39375;-74
2023/05/26 07:28:54;;;;;;;4.30;3.00;;;;;;;33.00;29.05;101075.34;103897;277;39610;-74
2023/05/26 07:31:28;;;;;;;5.10;3.10;;;;;;;32.62;28.92;101077.23;103856;277;174012;-73
2023/05/26 07:34:03;;;;;;;4.00;3.10;;;;;;;32.51;29.87;101073.20;103935;277;38407;-75
2023/05/26 07:36:40;;;;;;;5.00;3.70;;;;;;;32.65;30.28;101081.78;103951;277;38754;-74
2023/05/26 07:39:16;;;;;;;5.70;3.50;;;;;;;32.85;29.40;101080.98;103929;277;39437;-73
2023/05/26 07:41:55;;;;;;;7.80;3.70;;;;;;;32.94;29.12;101081.23;103900;277;39438;-74
2023/05/26 07:44:29;;;;;;;4.90;3.90;;;;;;;32.99;28.41;101081.66;103846;277;38278;-72
2023/05/26 07:47:06;;;;;;;3.60;3.30;;;;;;;33.17;28.71;101082.15;103974;277;39297;-75
2023/05/26 07:49:47;;;;;;;8.30;3.80;;;;;;;33.28;28.45;101085.98;103919;277;38820;-75
2023/05/26 07:52:25;;;;;;;7.10;3.50;;;;;;;33.53;28.52;101082.83;103818;277;39317;-74
2023/05/26 07:55:00;;;;;;;5.70;3.50;;;;;;;33.32;28.64;101081.73;103972;277;39439;-74
2023/05/26 07:57:44;;;;;;;6.50;3.60;;;;;;;33.38;28.98;101081.89;103980;277;39789;-75
2023/05/26 08:00:24;;;;;;;5.10;3.50;;;;;;;33.53;28.46;101080.74;103908;289;38942;-74
2023/05/26 08:03:07;;;;;;;6.30;3.90;;;;;;;33.15;28.22;101083.08;103883;277;39679;-75
2023/05/26 08:05:45;;;;;;;4.60;3.40;;;;;;;32.82;28.23;101081.77;104046;276;38247;-75
2023/05/26 08:08:20;;;;;;;6.70;3.70;;;;;;;32.58;29.06;101081.67;104011;276;39385;-73
2023/05/26 08:10:56;;;;;;;6.10;3.70;;;;;;;32.42;29.51;101084.41;104052;276;38495;-75
2023/05/26 08:13:33;;;;;;;4.60;3.30;;;;;;;31.94;29.61;101086.40;104020;276;38249;-75
2023/05/26 08:16:09;;;;;;;;;;;;;;;31.36;30.00;101092.39;104078;276;38641;-73
2023/05/26 08:18:45;;;;;;;6.20;3.50;;;;;;;30.80;30.87;101091.41;104056;276;39680;-75
2023/05/26 08:21:24;;;;;;;5.60;3.50;;;;;;;30.68;31.65;101091.52;103865;277;38958;-75
2023/05/26 08:23:58;;;;;;;4.80;3.60;;;;;;;30.36;31.82;101091.10;104062;276;39386;-73
2023/05/26 08:26:34;;;;;;;6.00;3.40;;;;;;;30.68;32.30;101092.29;104059;276;38545;-73
2023/05/26 08:29:11;;;;;;;7.00;3.00;;;;;;;31.14;31.19;101091.33;104078;276;39373;-74
2023/05/26 08:31:47;;;;;;;7.10;3.20;;;;;;;30.98;30.61;101083.80;104128;276;38348;-75
2023/05/26 08:34:20;;;;;;;4.80;3.40;;;;;;;31.01;31.29;101086.91;104042;276;39117;-74
2023/05/26 08:36:56;;;;;;;5.20;3.40;;;;;;;31.18;31.83;101088.91;104060;276;38497;-74
2023/05/26 08:39:30;;;;;;;6.00;3.40;;;;;;;31.57;31.14;101086.38;103784;277;174080;-74
2023/05/26 08:42:19;;;;;;;3.70;3.10;;;;;;;32.10;30.12;101080.39;104010;276;38361;-73
2023/05/26 08:44:53;;;;;;;4.90;3.10;;;;;;;32.04;28.63;101076.27;104006;276;40041;-73
2023/05/26 08:47:27;;;;;;;6.80;3.60;;;;;;;31.20;29.10;101080.59;104105;276;39826;-74
2023/05/26 08:50:07;;;;;;;6.40;3.50;;;;;;;30.98;30.89;101078.21;104098;276;38253;-75
2023/05/26 08:52:42;;;;;;;4.60;3.70;;;;;;;31.50;30.71;101080.17;104058;276;38531;-75
2023/05/26 08:55:20;;;;;;;5.50;3.20;;;;;;;31.55;30.33;101083.77;104082;276;38525;-75
2023/05/26 08:57:57;;;;;;;6.60;3.10;;;;;;;31.26;29.96;101084.35;104045;276;38248;-74
2023/05/26 09:00:32;;;;;;;5.60;3.40;;;;;;;30.84;30.11;101080.48;103938;276;174186;-73
2023/05/26 09:03:08;;;;;;;5.60;3.00;;;;;;;31.00;31.36;101082.70;104045;276;38319;-73
2023/05/26 09:05:42;;;;;;;5.60;3.10;;;;;;;31.40;30.91;101083.67;104050;276;38236;-74
2023/05/26 09:08:19;;;;;;;4.10;3.10;;;;;;;31.71;29.78;101080.11;104023;276;38286;-74
2023/05/26 09:10:54;;;;;;;5.90;3.50;;;;;;;31.92;29.42;101073.56;103997;276;38287;-74
2023/05/26 09:13:28;;;;;;;5.40;3.20;;;;;;;31.95;29.45;101080.20;104086;276;38252;-74
2023/05/26 09:16:03;;;;;;;7.50;3.30;;;;;;;31.65;28.97;101079.74;104066;276;38240;-72
2023/05/26 09:18:38;;;;;;;5.90;3.20;;;;;;;30.96;29.49;101077.66;104051;276;38527;-74
2023/05/26 09:21:15;;;;;;;5.70;3.40;;;;;;;30.32;29.81;101077.84;103934;276;39357;-75
2023/05/26 09:23:56;;;;;;;6.10;2.90;;;;;;;30.13;31.22;101074.90;104065;276;38585;-76
2023/05/26 09:26:32;;;;;;;4.00;3.10;;;;;;;30.13;31.23;101072.56;104048;276;38273;-74
2023/05/26 09:29:10;;;;;;;6.40;3.20;;;;;;;30.15;31.47;101072.06;104057;276;38925;-72
2023/05/26 09:31:49;;;;;;;6.60;3.30;;;;;;;30.25;31.32;101070.89;103907;276;38278;-74
2023/05/26 09:34:25;;;;;;;6.60;3.30;;;;;;;30.42;30.70;101066.48;103915;276;171541;-74
2023/05/26 09:37:08;;;;;;;6.70;3.70;;;;;;;30.56;30.88;101063.83;104002;276;38486;-76
2023/05/26 09:39:46;;;;;;;10.30;3.90;;;;;;;30.60;30.15;101067.36;104046;276;38610;-73
2023/05/26 09:42:21;;;;;;;;;;;;;;;30.59;30.42;101065.45;103995;276;38496;-74
2023/05/26 09:44:59;;;;;;;8.20;3.90;;;;;;;30.64;30.56;101062.02;103904;276;188178;-74
2023/05/26 09:47:39;;;;;;;7.70;3.30;;;;;;;30.64;29.95;101060.91;104037;264;39483;-73
2023/05/26 09:50:14;;;;;;;4.90;3.10;;;;;;;30.65;30.38;101064.76;103898;276;174320;-75
2023/05/26 09:52:55;;;;;;;6.70;3.30;;;;;;;30.73;30.62;101063.79;104026;276;38686;-73
2023/05/26 09:55:30;;;;;;;8.00;3.40;;;;;;;30.79;29.68;101063.06;104102;276;39407;-74
2023/05/26 09:58:10;;;;;;;5.40;3.10;;;;;;;30.66;30.16;101063.61;104052;276;38227;-72
2023/05/26 10:00:49;;;;;;;5.20;3.30;;;;;;;30.53;30.37;101067.81;104067;276;38764;-74
2023/05/26 10:03:28;;;;;;;8.40;3.70;;;;;;;30.42;30.80;101067.03;104054;276;38260;-74
2023/05/26 10:06:03;;;;;;;5.20;3.10;;;;;;;30.42;30.24;101062.77;104052;276;39607;-73
2023/05/26 10:08:41;;;;;;;8.70;3.30;;;;;;;30.43;29.99;101066.01;103954;276;174423;-72
2023/05/26 10:11:19;;;;;;;6.70;2.90;;;;;;;30.45;29.98;101065.06;104020;276;39484;-73
2023/05/26 10:13:54;;;;;;;4.80;3.00;;;;;;;30.44;29.61;101065.40;104008;276;38258;-74
2023/05/26 10:16:31;;;;;;;4.80;2.80;;;;;;;30.51;28.92;101064.34;104054;276;38240;-73
2023/05/26 10:19:05;;;;;;;9.30;3.10;;;;;;;30.47;28.75;101064.09;104058;276;38622;-74
2023/05/26 10:21:46;;;;;;;6.30;3.20;;;;;;;30.32;28.74;101065.55;104110;276;38790;-73
2023/05/26 10:24:31;;;;;;;7.50;3.00;;;;;;;30.21;29.02;101068.09;103950;276;174461;-74
2023/05/26 10:27:11;;;;;;;3.80;2.80;;;;;;;30.03;28.52;101067.01;103943;276;40821;-72
2023/05/26 10:29:53;;;;;;;5.50;3.10;;;;;;;29.78;29.05;101071.10;104081;276;38257;-72
2023/05/26 10:32:48;;;;;;;7.40;3.50;;;;;;;29.69;28.51;101068.33;104099;276;38309;-71
2023/05/26 10:35:30;;;;;;;4.70;2.60;;;;;;;29.55;28.70;101067.09;104039;276;38889;-74
2023/05/26 10:38:15;;;;;;;5.90;3.00;;;;;;;29.45;28.56;101061.96;103940;276;174237;-73
2023/05/26 10:40:55;;;;;;;4.70;3.00;;;;;;;29.36;29.40;101059.85;104048;264;38258;-72
2023/05/26 10:43:33;;;;;;;6.80;3.10;;;;;;;29.24;28.83;101059.11;104079;276;39820;-71
2023/05/26 10:46:10;;;;;;;6.20;2.90;;;;;;;29.07;28.82;101060.45;104061;276;38431;-73
2023/05/26 10:49:01;;;;;;;5.30;3.20;;;;;;;28.85;28.31;101064.27;104069;276;39404;-74
2023/05/26 10:51:38;;;;;;;7.00;3.20;;;;;;;28.61;28.94;101063.06;104083;265;38256;-74
2023/05/26 10:54:24;;;;;;;7.50;3.50;;;;;;;28.46;29.88;101062.29;104135;276;38465;-71
2023/05/26 10:57:06;;;;;;;5.60;3.10;;;;;;;28.39;29.63;101055.67;103905;276;38565;-74
2023/05/26 10:59:44;;;;;;;4.90;2.70;;;;;;;28.21;28.97;101056.89;104098;276;38418;-74
2023/05/26 11:02:23;;;;;;;7.90;3.50;;;;;;;28.02;29.97;101057.01;104049;276;38365;-71
2023/05/26 11:04:59;;;;;;;10.20;3.20;;;;;;;28.00;30.89;101059.38;104009;276;39402;-73
2023/05/26 11:07:34;;;;;;;5.90;3.10;;;;;;;28.03;30.64;101061.08;104025;276;39230;-73
2023/05/26 11:10:11;;;;;;;6.30;3.40;;;;;;;28.03;30.84;101054.37;104026;276;38281;-75
2023/05/26 11:12:57;;;;;;;5.60;3.00;;;;;;;28.05;31.15;101052.42;104014;276;38496;-74
2023/05/26 11:15:35;;;;;;;6.90;2.90;;;;;;;28.06;31.43;101055.23;103809;276;39635;-74
2023/05/26 11:18:17;;;;;;;5.20;3.10;;;;;;;28.07;31.21;101053.48;104049;276;39055;-74
2023/05/26 11:20:57;;;;;;;5.80;2.90;;;;;;;28.04;31.31;101051.61;104063;276;39647;-74
2023/05/26 11:23:32;;;;;;;6.30;3.20;;;;;;;28.01;30.97;101052.33;103951;276;174309;-74
2023/05/26 11:26:15;;;;;;;5.60;3.40;;;;;;;27.92;30.47;101049.41;104058;276;38839;-75
2023/05/26 11:28:52;;;;;;;6.40;3.20;;;;;;;27.73;30.07;101049.67;104029;276;38468;-74
2023/05/26 11:31:30;;;;;;;5.30;3.20;;;;;;;27.61;31.39;101047.48;104069;276;38455;-74
2023/05/26 11:34:05;;;;;;;4.90;3.00;;;;;;;27.53;32.15;101044.30;104043;276;38613;-75
2023/05/26 11:36:45;;;;;;;6.60;3.10;;;;;;;27.46;31.35;101046.68;104067;276;38256;-74
2023/05/26 11:39:20;;;;;;;6.50;2.80;;;;;;;27.36;31.87;101049.77;104009;276;38248;-74
2023/05/26 11:41:55;;;;;;;4.70;2.70;;;;;;;27.27;30.77;101049.58;104018;276;39003;-74
2023/05/26 11:44:35;;;;;;;5.10;2.50;;;;;;;27.10;31.30;101046.41;104057;276;38275;-74
2023/05/26 11:47:14;;;;;;;9.10;2.70;;;;;;;26.95;31.08;101050.20;104073;276;40148;-75
2023/05/26 11:49:51;;;;;;;5.60;2.80;;;;;;;26.75;29.96;101047.95;104083;276;38486;-74
2023/05/26 11:52:25;;;;;;;6.10;2.80;;;;;;;26.42;30.64;101045.37;103501;276;666834;-73
2023/05/26 11:55:03;;;;;;;5.80;2.70;;;;;;;26.14;30.07;101047.23;103209;277;893986;-73
2023/05/26 11:57:38;;;;;;;8.60;2.60;;;;;;;25.87;30.98;101045.77;104046;276;38252;-74
2023/05/26 12:00:22;;;;;;;7.80;3.20;;;;;;;25.72;31.31;101046.98;103902;276;188550;-73
2023/05/26 12:02:57;;;;;;;7.00;2.90;;;;;;;25.53;31.13;101052.83;104042;276;38852;-74
2023/05/26 12:05:33;;;;;;;9.40;2.70;;;;;;;25.40;32.02;101050.27;103947;277;38281;-73
2023/05/26 12:08:10;;;;;;;5.30;2.60;;;;;;;25.39;31.99;101046.23;103919;277;39708;-74
2023/05/26 12:10:47;;;;;;;8.40;2.80;;;;;;;25.34;31.67;101050.06;103955;277;39626;-74